createdAt,value
2022-11-16T00:00:06.557Z,16.57
2022-11-16T00:02:38.823Z,11.43
2022-11-16T00:05:10.779Z,13.83
2022-11-16T00:07:42.826Z,13.13
2022-11-16T00:10:14.843Z,15.13
2022-11-16T00:12:46.567Z,12.10
2022-11-16T00:15:18.302Z,14.50
2022-11-16T00:17:50.100Z,12.97
2022-11-16T00:20:21.894Z,15.73
2022-11-16T00:22:53.624Z,13.17
2022-11-16T00:25:25.368Z,14.43
2022-11-16T00:27:57.374Z,16.60
2022-11-16T00:30:29.121Z,12.77
2022-11-16T00:33:01.935Z,11.77
2022-11-16T00:35:39.560Z,16.93
2022-11-16T00:38:11.589Z,12.90
2022-11-16T00:40:43.511Z,17.40
2022-11-16T00:43:15.836Z,11.73
2022-11-16T00:45:47.680Z,14.80
2022-11-16T00:48:19.804Z,21.67
2022-11-16T00:50:51.576Z,17.20
2022-11-16T00:53:23.949Z,15.23
2022-11-16T00:55:55.836Z,14.90
2022-11-16T00:58:28.312Z,13.03
2022-11-16T01:01:09.624Z,24.80
2022-11-16T01:03:41.812Z,20.10
2022-11-16T01:06:16.095Z,18.73
2022-11-16T01:08:47.840Z,20.07
2022-11-16T01:11:38.431Z,15.00
2022-11-16T01:14:10.816Z,17.40
2022-11-16T01:16:42.728Z,29.03
2022-11-16T01:19:14.661Z,21.53
2022-11-16T01:21:46.570Z,16.93
2022-11-16T01:24:18.412Z,15.37
2022-11-16T01:26:50.406Z,17.10
2022-11-16T01:29:25.263Z,19.57
2022-11-16T01:32:01.403Z,20.03
2022-11-16T01:34:33.446Z,20.37
2022-11-16T01:37:11.404Z,14.57
2022-11-16T01:39:45.888Z,15.23
2022-11-16T01:42:24.618Z,20.13
2022-11-16T01:45:24.488Z,15.03
2022-11-16T01:47:59.117Z,14.13
2022-11-16T01:50:36.688Z,21.60
2022-11-16T01:53:10.591Z,17.47
2022-11-16T01:55:50.418Z,22.63
2022-11-16T01:59:00.608Z,12.50
2022-11-16T02:01:32.640Z,16.80
2022-11-16T02:04:06.768Z,18.80
2022-11-16T02:07:06.515Z,16.23
2022-11-16T02:10:05.427Z,16.97
2022-11-16T02:13:08.064Z,20.77
2022-11-16T02:16:26.950Z,16.10
2022-11-16T02:19:36.197Z,21.13
2022-11-16T02:22:53.396Z,13.40
2022-11-16T02:25:49.704Z,14.57
2022-11-16T02:28:38.111Z,15.87
2022-11-16T02:31:16.408Z,23.67
2022-11-16T02:33:50.273Z,19.90
2022-11-16T02:36:24.808Z,16.97
2022-11-16T02:39:11.208Z,20.70
2022-11-16T02:41:45.658Z,16.23
2022-11-16T02:44:22.556Z,14.80
2022-11-16T02:46:59.273Z,18.37
2022-11-16T02:49:39.640Z,15.73
2022-11-16T02:52:14.333Z,15.00
2022-11-16T02:54:46.260Z,22.70
2022-11-16T02:57:33.254Z,18.57
2022-11-16T03:00:07.318Z,13.50
2022-11-16T03:03:17.307Z,22.30
2022-11-16T03:05:53.459Z,15.00
2022-11-16T03:08:33.059Z,15.47
2022-11-16T03:11:28.460Z,17.93
2022-11-16T03:14:07.823Z,25.40
2022-11-16T03:16:43.656Z,16.80
2022-11-16T03:19:21.967Z,13.80
2022-11-16T03:22:01.700Z,16.67
2022-11-16T03:24:34.460Z,18.40
2022-11-16T03:27:26.425Z,24.20
2022-11-16T03:30:04.363Z,22.77
2022-11-16T03:32:49.032Z,28.40
2022-11-16T03:36:03.539Z,21.13
2022-11-16T03:38:39.681Z,18.20
2022-11-16T03:41:13.984Z,13.63
2022-11-16T03:43:48.433Z,15.30
2022-11-16T03:46:20.758Z,18.83
2022-11-16T03:48:59.669Z,19.20
2022-11-16T03:51:35.849Z,14.47
2022-11-16T03:54:08.474Z,14.57
2022-11-16T03:56:41.194Z,31.87
2022-11-16T03:59:13.521Z,23.97
2022-11-16T04:01:45.296Z,24.00
2022-11-16T04:04:37.725Z,28.43
2022-11-16T04:07:28.839Z,16.90
2022-11-16T04:10:19.109Z,14.67
2022-11-16T04:13:10.732Z,37.00
2022-11-16T04:16:01.232Z,37.10
2022-11-16T04:18:51.595Z,18.37
2022-11-16T04:21:56.244Z,16.33
2022-11-16T04:24:35.453Z,18.77
2022-11-16T04:27:28.954Z,23.93
2022-11-16T04:30:02.669Z,17.33
2022-11-16T04:32:55.043Z,17.67
2022-11-16T04:35:48.126Z,17.70
2022-11-16T04:38:20.089Z,18.87
2022-11-16T04:40:51.943Z,18.30
2022-11-16T04:43:23.741Z,18.47
2022-11-16T04:46:14.171Z,19.13
2022-11-16T04:48:46.394Z,15.77
2022-11-16T04:51:18.226Z,22.57
2022-11-16T04:53:50.132Z,21.57
2022-11-16T04:56:26.813Z,16.73
2022-11-16T04:58:58.642Z,27.07
2022-11-16T05:01:49.240Z,20.23
2022-11-16T05:04:21.468Z,17.67
2022-11-16T05:06:53.450Z,17.33
2022-11-16T05:09:25.354Z,18.60
2022-11-16T05:11:57.818Z,20.50
2022-11-16T05:14:30.466Z,15.43
2022-11-16T05:17:03.257Z,22.90
2022-11-16T05:19:54.805Z,18.20
2022-11-16T05:22:28.289Z,16.10
2022-11-16T05:25:01.930Z,17.03
2022-11-16T05:27:33.907Z,16.07
2022-11-16T05:30:06.540Z,19.10
2022-11-16T05:32:38.856Z,15.37
2022-11-16T05:35:12.334Z,15.77
2022-11-16T05:37:44.204Z,18.80
2022-11-16T05:40:16.164Z,18.77
2022-11-16T05:42:57.858Z,13.17
2022-11-16T05:45:31.271Z,17.27
2022-11-16T05:48:04.930Z,12.47
2022-11-16T05:50:42.309Z,13.83
2022-11-16T05:53:24.720Z,16.07
2022-11-16T05:55:56.852Z,13.57
2022-11-16T05:58:29.507Z,13.87
2022-11-16T06:01:02.715Z,15.07
2022-11-16T06:03:36.420Z,12.03
2022-11-16T06:06:09.064Z,12.67
2022-11-16T06:08:41.030Z,12.17
2022-11-16T06:11:16.238Z,13.00
2022-11-16T06:13:49.090Z,11.63
2022-11-16T06:16:21.777Z,16.93
2022-11-16T06:18:53.631Z,17.97
2022-11-16T06:21:25.576Z,11.30
2022-11-16T06:23:58.630Z,12.27
2022-11-16T06:26:30.436Z,15.00
2022-11-16T06:29:02.554Z,16.17
2022-11-16T06:31:34.367Z,15.37
2022-11-16T06:34:07.760Z,11.53
2022-11-16T06:36:39.576Z,14.67
2022-11-16T06:39:13.043Z,18.60
2022-11-16T06:41:45.525Z,11.70
2022-11-16T06:44:18.422Z,11.53
2022-11-16T06:46:58.736Z,15.60
2022-11-16T06:49:30.591Z,10.70
2022-11-16T06:52:06.128Z,6.00
2022-11-16T06:54:37.886Z,8.47
2022-11-16T06:57:09.845Z,10.10
2022-11-16T06:59:42.689Z,8.20
2022-11-16T07:02:16.406Z,12.17
2022-11-16T07:04:49.630Z,14.23
2022-11-16T07:07:21.698Z,7.83
2022-11-16T07:09:54.599Z,12.67
2022-11-16T07:12:27.360Z,6.90
2022-11-16T07:15:01.834Z,10.17
2022-11-16T07:17:36.743Z,8.90
2022-11-16T07:20:09.473Z,10.00
2022-11-16T07:22:42.138Z,7.23
2022-11-16T07:25:17.683Z,10.83
2022-11-16T07:27:49.548Z,12.37
2022-11-16T07:30:21.381Z,11.50
2022-11-16T07:33:09.084Z,9.13
2022-11-16T07:36:07.289Z,7.00
2022-11-16T07:38:39.768Z,10.47
2022-11-16T07:41:15.519Z,8.40
2022-11-16T07:43:55.293Z,10.93
2022-11-16T07:46:46.411Z,15.63
2022-11-16T07:49:19.947Z,11.17
2022-11-16T07:52:00.343Z,10.37
2022-11-16T07:54:48.908Z,10.43
2022-11-16T07:57:21.027Z,10.57
2022-11-16T07:59:53.296Z,9.50
2022-11-16T08:02:25.136Z,9.97
2022-11-16T08:04:57.613Z,13.63
2022-11-16T08:07:34.260Z,9.60
2022-11-16T08:10:06.623Z,10.13
2022-11-16T08:12:38.497Z,11.77
2022-11-16T08:15:11.596Z,7.53
2022-11-16T08:17:43.387Z,6.10
2022-11-16T08:20:18.162Z,8.57
2022-11-16T08:22:51.918Z,6.83
2022-11-16T08:25:23.854Z,4.97
2022-11-16T08:27:56.322Z,7.17
2022-11-16T08:30:28.672Z,6.10
2022-11-16T08:33:00.909Z,6.20
2022-11-16T08:35:34.116Z,6.40
2022-11-16T08:38:05.932Z,9.10
2022-11-16T08:40:38.683Z,8.87
2022-11-16T08:43:11.128Z,7.27
2022-11-16T08:45:48.181Z,5.33
2022-11-16T08:48:20.250Z,8.77
2022-11-16T08:51:15.813Z,6.73
2022-11-16T08:53:48.345Z,4.17
2022-11-16T08:56:20.502Z,7.63
2022-11-16T08:58:58.173Z,7.87
2022-11-16T09:01:32.548Z,5.77
2022-11-16T09:04:04.556Z,4.87
2022-11-16T09:06:36.292Z,6.83
2022-11-16T09:09:08.029Z,4.63
2022-11-16T09:11:39.907Z,3.20
2022-11-16T09:14:11.675Z,3.63
2022-11-16T09:16:43.433Z,3.17
2022-11-16T09:19:15.172Z,3.03
2022-11-16T09:21:46.962Z,3.13
2022-11-16T09:24:18.756Z,2.43
2022-11-16T09:26:50.560Z,4.90
2022-11-16T09:29:22.418Z,3.03
2022-11-16T09:31:55.612Z,5.47
2022-11-16T09:34:28.305Z,3.37
2022-11-16T09:37:00.996Z,3.03
2022-11-16T09:39:34.363Z,3.57
2022-11-16T09:42:29.746Z,4.63
2022-11-16T09:45:06.323Z,3.07
2022-11-16T09:47:51.793Z,5.27
2022-11-16T09:50:34.029Z,5.77
2022-11-16T09:53:44.434Z,3.27
2022-11-16T09:56:27.377Z,3.37
2022-11-16T09:59:11.085Z,3.77
2022-11-16T10:01:56.423Z,3.83
2022-11-16T10:04:38.552Z,3.13
2022-11-16T10:07:37.372Z,2.80
2022-11-16T10:10:15.668Z,3.27
2022-11-16T10:12:57.655Z,2.83
2022-11-16T10:15:48.418Z,2.30
2022-11-16T10:18:29.023Z,6.13
2022-11-16T10:21:42.234Z,3.00
2022-11-16T10:24:36.329Z,2.50
2022-11-16T10:27:32.900Z,2.20
2022-11-16T10:30:15.179Z,5.07
2022-11-16T10:33:15.851Z,4.47
2022-11-16T10:35:54.114Z,3.83
2022-11-16T10:38:30.935Z,4.10
2022-11-16T10:41:19.995Z,2.97
2022-11-16T10:43:51.893Z,2.80
2022-11-16T10:46:25.947Z,3.30
2022-11-16T10:49:22.522Z,4.00
2022-11-16T10:51:54.251Z,3.30
2022-11-16T10:54:25.981Z,7.90
2022-11-16T10:57:04.804Z,2.77
2022-11-16T10:59:47.412Z,2.73
2022-11-16T11:02:25.223Z,2.70
2022-11-16T11:05:08.109Z,4.40
2022-11-16T11:07:41.163Z,4.63
2022-11-16T11:10:32.884Z,3.60
2022-11-16T11:13:10.739Z,3.77
2022-11-16T11:15:43.849Z,2.90
2022-11-16T11:18:15.557Z,6.90
2022-11-16T11:20:52.924Z,6.63
2022-11-16T11:23:26.155Z,8.23
2022-11-16T11:26:00.104Z,4.93
2022-11-16T11:28:38.296Z,5.60
2022-11-16T11:31:25.777Z,4.03
2022-11-16T11:34:14.277Z,3.67
2022-11-16T11:37:01.678Z,3.13
2022-11-16T11:39:33.494Z,4.63
2022-11-16T11:42:14.377Z,4.17
2022-11-16T11:44:52.824Z,4.40
2022-11-16T11:47:58.154Z,3.93
2022-11-16T11:50:52.698Z,3.77
2022-11-16T11:53:37.636Z,2.60
2022-11-16T11:56:12.205Z,4.57
2022-11-16T11:58:45.680Z,2.27
2022-11-16T12:01:44.609Z,4.63
2022-11-16T12:04:37.578Z,4.00
2022-11-16T12:07:37.131Z,3.70
2022-11-16T12:10:46.477Z,5.37
2022-11-16T12:13:41.513Z,7.97
2022-11-16T12:16:37.173Z,4.67
2022-11-16T12:19:24.102Z,3.17
2022-11-16T12:22:41.454Z,3.47
2022-11-16T12:25:50.309Z,3.17
2022-11-16T12:28:39.732Z,3.20
2022-11-16T12:31:27.308Z,3.33
2022-11-16T12:34:10.104Z,3.20
2022-11-16T12:37:16.153Z,4.07
2022-11-16T12:40:15.836Z,3.00
2022-11-16T12:43:17.260Z,4.60
2022-11-16T12:46:10.376Z,3.97
2022-11-16T12:48:50.095Z,3.53
2022-11-16T12:51:46.486Z,3.77
2022-11-16T12:54:57.729Z,5.00
2022-11-16T12:58:00.955Z,3.73
2022-11-16T13:00:50.132Z,4.70
2022-11-16T13:03:44.344Z,5.77
2022-11-16T13:06:53.677Z,3.97
2022-11-16T13:09:30.476Z,5.80
2022-11-16T13:12:06.422Z,6.93
2022-11-16T13:14:41.738Z,5.97
2022-11-16T13:17:36.990Z,3.77
2022-11-16T13:20:17.467Z,4.47
2022-11-16T13:23:13.559Z,5.80
2022-11-16T13:26:01.522Z,5.17
2022-11-16T13:28:41.181Z,6.10
2022-11-16T13:31:21.455Z,7.07
2022-11-16T13:34:05.562Z,4.83
2022-11-16T13:36:39.217Z,5.07
2022-11-16T13:39:18.692Z,4.70
2022-11-16T13:42:11.412Z,6.23
2022-11-16T13:44:47.409Z,4.90
2022-11-16T13:47:27.335Z,6.57
2022-11-16T13:50:05.352Z,5.10
2022-11-16T13:55:48.120Z,6.17
2022-11-16T13:58:22.273Z,5.00
2022-11-16T14:01:10.799Z,6.20
2022-11-16T14:03:51.584Z,6.83
2022-11-16T14:06:23.302Z,4.43
2022-11-16T14:08:56.924Z,6.03
2022-11-16T14:11:39.935Z,5.63
2022-11-16T14:14:33.257Z,6.13
2022-11-16T14:17:07.111Z,5.03
2022-11-16T14:19:48.959Z,6.37
2022-11-16T14:22:49.945Z,5.30
2022-11-16T14:25:40.501Z,7.07
2022-11-16T14:28:18.175Z,8.07
2022-11-16T14:31:13.036Z,6.37
2022-11-16T14:33:51.501Z,5.63
2022-11-16T14:36:44.496Z,13.97
2022-11-16T14:39:17.305Z,7.10
2022-11-16T14:41:49.310Z,6.87
2022-11-16T14:44:24.450Z,4.80
2022-11-16T14:46:56.908Z,9.17
2022-11-16T14:49:31.871Z,7.60
2022-11-16T14:52:06.842Z,8.97
2022-11-16T14:54:46.444Z,5.10
2022-11-16T14:57:21.140Z,5.40
2022-11-16T15:00:12.564Z,6.47
2022-11-16T15:02:59.200Z,4.90
2022-11-16T15:05:36.540Z,6.53
2022-11-16T15:08:17.584Z,7.37
2022-11-16T15:10:52.653Z,6.50
2022-11-16T15:13:25.238Z,7.03
2022-11-16T15:16:14.469Z,6.27
2022-11-16T15:18:57.374Z,7.33
2022-11-16T15:21:29.520Z,7.70
2022-11-16T15:24:23.883Z,4.90
2022-11-16T15:26:53.554Z,8.57
2022-11-16T15:29:25.454Z,7.87
2022-11-16T15:31:57.446Z,6.10
2022-11-16T15:34:30.775Z,9.17
2022-11-16T15:37:02.503Z,5.70
2022-11-16T15:39:36.417Z,9.63
2022-11-16T15:42:14.794Z,7.50
2022-11-16T15:44:46.670Z,5.57
2022-11-16T15:47:18.942Z,9.13
2022-11-16T15:49:53.152Z,7.90
2022-11-16T15:52:45.427Z,10.27
2022-11-16T15:55:34.567Z,6.47
2022-11-16T15:58:18.677Z,6.80
2022-11-16T16:00:50.640Z,7.50
2022-11-16T16:03:25.192Z,8.03
2022-11-16T16:05:57.130Z,6.73
2022-11-16T16:08:32.003Z,7.23
2022-11-16T16:11:27.066Z,7.63
2022-11-16T16:14:01.065Z,7.43
2022-11-16T16:16:37.925Z,7.13
2022-11-16T16:19:36.309Z,7.37
2022-11-16T16:22:25.354Z,8.03
2022-11-16T16:24:57.404Z,14.63
2022-11-16T16:27:31.468Z,8.33
2022-11-16T16:30:05.484Z,12.03
2022-11-16T16:32:38.004Z,10.10
2022-11-16T16:35:17.584Z,9.17
2022-11-16T16:37:50.824Z,7.03
2022-11-16T16:40:22.722Z,7.17
2022-11-16T16:42:58.047Z,10.07
2022-11-16T16:45:37.270Z,9.73
2022-11-16T16:48:09.804Z,8.30
2022-11-16T16:50:41.596Z,10.47
2022-11-16T16:53:14.464Z,12.37
2022-11-16T16:55:47.634Z,11.30
2022-11-16T16:58:19.547Z,9.10
2022-11-16T17:00:52.334Z,9.73
2022-11-16T17:03:26.326Z,10.80
2022-11-16T17:06:04.441Z,7.70
2022-11-16T17:08:37.292Z,8.87
2022-11-16T17:11:09.998Z,8.40
2022-11-16T17:13:42.087Z,11.37
2022-11-16T17:16:13.872Z,11.73
2022-11-16T17:18:46.235Z,9.40
2022-11-16T17:21:17.977Z,9.80
2022-11-16T17:23:49.870Z,9.40
2022-11-16T17:26:21.846Z,12.37
2022-11-16T17:28:57.596Z,8.43
2022-11-16T17:31:29.394Z,10.87
2022-11-16T17:34:01.296Z,12.57
2022-11-16T17:36:33.024Z,11.63
2022-11-16T17:39:04.773Z,11.30
2022-11-16T17:41:37.254Z,13.63
2022-11-16T17:44:09.258Z,10.97
2022-11-16T17:46:41.037Z,13.00
2022-11-16T17:49:12.814Z,9.60
2022-11-16T17:51:44.611Z,10.40
2022-11-16T17:54:16.356Z,10.23
2022-11-16T17:56:48.521Z,8.30
2022-11-16T17:59:22.744Z,12.30
2022-11-16T18:01:57.972Z,5.83
2022-11-16T18:04:29.825Z,10.30
2022-11-16T18:07:01.599Z,10.47
2022-11-16T18:09:33.342Z,11.63
2022-11-16T18:12:05.393Z,18.77
2022-11-16T18:14:37.099Z,11.17
2022-11-16T18:17:08.940Z,12.77
2022-11-16T18:19:40.726Z,9.73
2022-11-16T18:22:12.468Z,11.17
2022-11-16T18:24:44.294Z,10.53
2022-11-16T18:27:16.016Z,10.03
2022-11-16T18:29:48.054Z,11.47
2022-11-16T18:32:20.018Z,11.97
2022-11-16T18:34:53.003Z,9.57
2022-11-16T18:37:25.071Z,10.93
2022-11-16T18:39:56.807Z,13.33
2022-11-16T18:42:28.546Z,12.60
2022-11-16T18:45:00.256Z,11.57
2022-11-16T18:47:32.135Z,19.87
2022-11-16T18:50:06.072Z,17.47
2022-11-16T18:52:40.594Z,14.20
2022-11-16T18:55:12.384Z,13.00
2022-11-16T18:57:44.121Z,15.23
2022-11-16T19:00:16.619Z,8.97
2022-11-16T19:02:48.395Z,12.50
2022-11-16T19:05:20.124Z,19.53
2022-11-16T19:07:51.881Z,12.83
2022-11-16T19:10:23.602Z,10.90
2022-11-16T19:12:55.336Z,11.57
2022-11-16T19:15:27.063Z,8.77
2022-11-16T19:18:19.871Z,11.40
2022-11-16T19:20:50.791Z,13.63
2022-11-16T19:23:22.520Z,11.93
2022-11-16T19:26:02.452Z,8.30
2022-11-16T19:28:42.308Z,10.97
2022-11-16T19:31:28.996Z,15.77
2022-11-16T19:34:04.580Z,14.70
2022-11-16T19:36:36.591Z,14.13
2022-11-16T19:39:08.356Z,14.73
2022-11-16T19:41:40.146Z,12.00
2022-11-16T19:44:11.908Z,17.90
2022-11-16T19:46:43.634Z,13.53
2022-11-16T19:49:20.247Z,18.90
2022-11-16T19:51:52.175Z,17.50
2022-11-16T19:54:23.959Z,16.70
2022-11-16T19:56:55.733Z,19.43
2022-11-16T19:59:27.473Z,14.90
2022-11-16T20:01:59.199Z,23.17
2022-11-16T20:04:34.217Z,16.70
2022-11-16T20:07:07.487Z,18.70
2022-11-16T20:09:39.196Z,13.20
2022-11-16T20:12:10.994Z,21.80
2022-11-16T20:14:42.765Z,15.63
2022-11-16T20:17:14.634Z,18.57
2022-11-16T20:19:46.350Z,16.80
2022-11-16T20:22:18.570Z,20.80
2022-11-16T20:24:50.297Z,12.07
2022-11-16T20:27:22.030Z,15.53
2022-11-16T20:29:53.870Z,19.37
2022-11-16T20:32:25.652Z,21.03
2022-11-16T20:34:57.384Z,17.30
2022-11-16T20:37:29.119Z,16.60
2022-11-16T20:40:00.931Z,21.63
2022-11-16T20:42:32.702Z,18.20
2022-11-16T20:45:06.702Z,24.10
2022-11-16T20:47:38.448Z,24.40
2022-11-16T20:50:10.319Z,18.70
2022-11-16T20:52:44.316Z,17.70
2022-11-16T20:55:17.840Z,14.70
2022-11-16T20:57:49.624Z,19.00
2022-11-16T21:00:21.553Z,14.27
2022-11-16T21:02:53.886Z,15.93
2022-11-16T21:05:25.658Z,17.57
2022-11-16T21:07:57.440Z,19.23
2022-11-16T21:10:30.077Z,13.23
2022-11-16T21:13:20.565Z,13.77
2022-11-16T21:16:00.219Z,17.87
2022-11-16T21:18:32.363Z,13.63
2022-11-16T21:21:06.590Z,18.43
2022-11-16T21:23:39.923Z,16.73
2022-11-16T21:26:14.224Z,16.07
2022-11-16T21:28:46.300Z,21.70
2022-11-16T21:31:20.419Z,20.27
2022-11-16T21:33:53.384Z,16.37
2022-11-16T21:36:27.116Z,13.13
2022-11-16T21:38:59.128Z,22.00
2022-11-16T21:41:31.726Z,15.50
2022-11-16T21:44:03.481Z,15.23
2022-11-16T21:46:35.220Z,25.53
2022-11-16T21:49:07.568Z,17.23
2022-11-16T21:51:39.298Z,16.00
2022-11-16T21:54:11.039Z,12.77
2022-11-16T21:56:42.755Z,13.27
2022-11-16T21:59:14.883Z,9.47
2022-11-16T22:02:02.142Z,13.20
2022-11-16T22:04:52.711Z,19.00
2022-11-16T22:07:33.843Z,17.50
2022-11-16T22:10:08.703Z,15.27
2022-11-16T22:12:40.437Z,17.37
2022-11-16T22:15:12.282Z,22.23
2022-11-16T22:17:44.700Z,15.73
2022-11-16T22:20:16.823Z,23.00
2022-11-16T22:22:48.845Z,16.40
2022-11-16T22:25:20.819Z,25.33
2022-11-16T22:28:19.271Z,16.60
2022-11-16T22:30:50.080Z,15.37
2022-11-16T22:33:23.287Z,17.37
2022-11-16T22:35:55.273Z,16.17
2022-11-16T22:38:27.227Z,15.63
2022-11-16T22:40:59.014Z,17.37
2022-11-16T22:43:31.615Z,18.27
2022-11-16T22:46:05.529Z,14.67
2022-11-16T22:48:39.446Z,16.07
2022-11-16T22:51:22.781Z,14.13
2022-11-16T22:53:55.755Z,12.67
2022-11-16T22:56:29.323Z,17.23
2022-11-16T22:59:02.456Z,15.80
2022-11-16T23:01:34.265Z,17.03
2022-11-16T23:04:06.152Z,18.77
2022-11-16T23:06:37.989Z,13.30
2022-11-16T23:09:09.715Z,19.70
2022-11-16T23:11:59.869Z,16.53
2022-11-16T23:14:50.403Z,16.87
2022-11-16T23:17:22.138Z,17.23
2022-11-16T23:20:17.424Z,21.10
2022-11-16T23:23:08.275Z,15.43
2022-11-16T23:25:58.685Z,14.40
2022-11-16T23:28:30.500Z,14.60
2022-11-16T23:31:02.240Z,16.63
2022-11-16T23:33:46.075Z,16.47
2022-11-16T23:36:17.819Z,14.63
2022-11-16T23:38:49.527Z,15.70
2022-11-16T23:41:40.098Z,18.00
2022-11-16T23:44:11.809Z,12.87
2022-11-16T23:46:43.586Z,18.20
2022-11-16T23:49:15.321Z,17.47
2022-11-16T23:51:47.072Z,22.87
2022-11-16T23:54:18.809Z,18.17
2022-11-16T23:56:50.603Z,13.80
2022-11-16T23:59:22.537Z,14.87
